Time;durP1;ratioP1;P1;durP2;ratioP2;P2;SDS_P1;SDS_P2;PMS_P1;PMS_P2;Temp;Humidity;BMP_temperature;BMP_pressure;BME280_temperature;BME280_humidity;BME280_pressure;Samples;Min_cycle;Max_cycle;Signal;HPM_P1;HPM_P2
2021/04/17 00:02:08;;;;;;;9.50;5.43;;;;;;;;;;4992461;28;20195;-69
2021/04/17 00:04:34;;;;;;;11.20;5.63;;;;;;;;;;4985245;28;21089;-69
2021/04/17 00:06:59;;;;;;;9.43;5.07;;;;;;;;;;4991810;28;20270;-69
2021/04/17 00:09:27;;;;;;;10.50;5.50;;;;;;;;;;4977108;28;20631;-69
2021/04/17 00:11:56;;;;;;;14.60;5.67;;;;;;;;;;4992420;28;20671;-69
2021/04/17 00:14:35;;;;;;;13.67;5.57;;;;;;;;;;4987528;28;20195;-70
2021/04/17 00:17:01;;;;;;;13.17;5.33;;;;;;;;;;4990433;28;20242;-69
2021/04/17 00:19:27;;;;;;;11.93;5.20;;;;;;;;;;4985093;28;20191;-69
2021/04/17 00:21:52;;;;;;;9.77;5.87;;;;;;;;;;4992879;28;20302;-70
2021/04/17 00:24:18;;;;;;;11.13;5.27;;;;;;;;;;4989879;28;20179;-69
2021/04/17 00:26:43;;;;;;;7.73;4.67;;;;;;;;;;4991239;28;20187;-70
2021/04/17 00:29:09;;;;;;;10.20;5.60;;;;;;;;;;4994866;28;20391;-70
2021/04/17 00:31:36;;;;;;;12.70;5.37;;;;;;;;;;4983944;28;20671;-70
2021/04/17 00:34:01;;;;;;;10.63;4.77;;;;;;;;;;4997870;28;20305;-70
2021/04/17 00:36:27;;;;;;;13.40;5.30;;;;;;;;;;4981436;28;20645;-70
2021/04/17 00:38:52;;;;;;;13.30;6.60;;;;;;;;;;4993968;28;20175;-69
2021/04/17 00:41:18;;;;;;;11.33;5.23;;;;;;;;;;4980032;28;20305;-69
2021/04/17 00:43:44;;;;;;;9.57;5.07;;;;;;;;;;4983010;28;532071;-70
2021/04/17 00:46:10;;;;;;;10.50;5.33;;;;;;;;;;4985627;28;20653;-69
2021/04/17 00:48:38;;;;;;;12.33;5.37;;;;;;;;;;4997517;28;20218;-69
2021/04/17 00:51:03;;;;;;;10.87;5.40;;;;;;;;;;4985900;28;20281;-70
2021/04/17 00:53:29;;;;;;;10.03;5.50;;;;;;;;;;4991157;28;20191;-69
2021/04/17 00:55:54;;;;;;;15.20;5.80;;;;;;;;;;4983787;28;20202;-69
2021/04/17 00:58:19;;;;;;;11.53;5.37;;;;;;;;;;4995909;28;20201;-69
2021/04/17 01:00:45;;;;;;;12.37;5.10;;;;;;;;;;4994736;28;20184;-68
2021/04/17 01:03:44;;;;;;;9.03;5.47;;;;;;;;;;4984123;28;20297;-68
2021/04/17 01:06:19;;;;;;;15.27;5.90;;;;;;;;;;4985532;28;20286;-69
2021/04/17 01:09:03;;;;;;;13.83;5.80;;;;;;;;;;4989358;28;20708;-69
2021/04/17 01:11:53;;;;;;;10.77;5.13;;;;;;;;;;4991558;28;20253;-69
2021/04/17 01:14:19;;;;;;;9.13;4.90;;;;;;;;;;4990546;28;20191;-69
2021/04/17 01:16:45;;;;;;;10.97;5.23;;;;;;;;;;4990976;28;20564;-69
2021/04/17 01:19:17;;;;;;;12.70;5.17;;;;;;;;;;4983694;28;20238;-70
2021/04/17 01:21:43;;;;;;;9.57;5.13;;;;;;;;;;4992859;28;20225;-69
2021/04/17 01:24:15;;;;;;;10.00;4.83;;;;;;;;;;4982999;28;20575;-69
2021/04/17 01:26:41;;;;;;;17.00;5.57;;;;;;;;;;4989865;28;20191;-70
2021/04/17 01:29:07;;;;;;;12.20;5.40;;;;;;;;;;4988321;28;20289;-68
2021/04/17 01:31:34;;;;;;;9.10;5.17;;;;;;;;;;4991234;28;20598;-69
2021/04/17 01:34:03;;;;;;;8.60;5.33;;;;;;;;;;4987451;28;20202;-69
2021/04/17 01:36:31;;;;;;;13.23;4.87;;;;;;;;;;4988130;28;20189;-69
2021/04/17 01:39:09;;;;;;;11.23;5.00;;;;;;;;;;4987777;28;20192;-69
2021/04/17 01:41:38;;;;;;;13.67;5.47;;;;;;;;;;4990995;28;20539;-69
2021/04/17 01:44:28;;;;;;;11.53;5.43;;;;;;;;;;4990189;28;20230;-70
2021/04/17 01:47:17;;;;;;;10.80;4.97;;;;;;;;;;4991961;28;20368;-69
2021/04/17 01:49:47;;;;;;;11.73;5.20;;;;;;;;;;4981821;28;20667;-69
2021/04/17 01:52:18;;;;;;;9.27;5.03;;;;;;;;;;4994143;28;20285;-69
2021/04/17 01:54:47;;;;;;;10.73;5.13;;;;;;;;;;4979281;28;20237;-69
2021/04/17 01:57:15;;;;;;;12.37;5.20;;;;;;;;;;4990334;28;20187;-69
2021/04/17 01:59:41;;;;;;;12.73;6.03;;;;;;;;;;4982347;28;20247;-69
2021/04/17 02:02:07;;;;;;;10.20;5.60;;;;;;;;;;4994167;28;20190;-69
2021/04/17 02:04:35;;;;;;;11.70;5.47;;;;;;;;;;4985848;28;20274;-69
2021/04/17 02:07:02;;;;;;;11.13;6.00;;;;;;;;;;4991369;28;20204;-69
2021/04/17 02:09:27;;;;;;;14.27;6.27;;;;;;;;;;4991280;28;20183;-69
2021/04/17 02:11:52;;;;;;;14.07;6.10;;;;;;;;;;4983179;28;20678;-69
2021/04/17 02:14:18;;;;;;;12.63;6.40;;;;;;;;;;4991826;28;20194;-69
2021/04/17 02:16:49;;;;;;;13.13;6.17;;;;;;;;;;4981720;28;20204;-69
2021/04/17 02:19:22;;;;;;;13.40;6.03;;;;;;;;;;4988310;28;20187;-69
2021/04/17 02:21:49;;;;;;;17.23;7.03;;;;;;;;;;4978548;28;20202;-69
2021/04/17 02:24:14;;;;;;;20.00;6.47;;;;;;;;;;4990646;28;20191;-69
2021/04/17 02:26:41;;;;;;;15.60;6.30;;;;;;;;;;4981451;28;20193;-68
2021/04/17 02:29:07;;;;;;;18.90;6.97;;;;;;;;;;4995002;28;20615;-69
2021/04/17 02:31:33;;;;;;;13.77;6.20;;;;;;;;;;4981419;28;20242;-69
2021/04/17 02:33:59;;;;;;;17.33;7.23;;;;;;;;;;4990931;28;20577;-68
2021/04/17 02:36:25;;;;;;;15.10;7.03;;;;;;;;;;4976935;28;20257;-68
2021/04/17 02:38:51;;;;;;;14.23;7.10;;;;;;;;;;4988132;28;20195;-69
2021/04/17 02:41:17;;;;;;;18.60;7.27;;;;;;;;;;4977393;28;20183;-69
2021/04/17 02:43:46;;;;;;;17.73;7.20;;;;;;;;;;4988638;28;20258;-69
2021/04/17 02:46:13;;;;;;;16.87;7.77;;;;;;;;;;4987988;28;20302;-69
2021/04/17 02:48:40;;;;;;;13.90;7.10;;;;;;;;;;4983384;28;20186;-69
2021/04/17 02:51:06;;;;;;;18.77;7.47;;;;;;;;;;4989182;28;20220;-69
2021/04/17 02:53:31;;;;;;;16.27;7.33;;;;;;;;;;4986241;28;20257;-69
2021/04/17 02:55:57;;;;;;;14.77;7.07;;;;;;;;;;4989295;28;20191;-69
2021/04/17 02:58:23;;;;;;;17.87;7.20;;;;;;;;;;4986135;28;20191;-69
2021/04/17 03:00:48;;;;;;;18.20;9.07;;;;;;;;;;4991446;28;20192;-69
2021/04/17 03:03:14;;;;;;;17.53;7.60;;;;;;;;;;4984135;28;20236;-70
2021/04/17 03:05:39;;;;;;;20.20;8.77;;;;;;;;;;4992101;28;20222;-69
2021/04/17 03:08:05;;;;;;;15.57;6.63;;;;;;;;;;4989124;28;20710;-69
2021/04/17 03:10:31;;;;;;;15.80;7.73;;;;;;;;;;4989905;28;20207;-69
2021/04/17 03:12:56;;;;;;;16.60;7.57;;;;;;;;;;4977526;28;20188;-69
2021/04/17 03:15:21;;;;;;;16.27;7.97;;;;;;;;;;4991152;28;20191;-69
2021/04/17 03:17:47;;;;;;;20.07;8.57;;;;;;;;;;5000614;28;20214;-69
2021/04/17 03:20:12;;;;;;;21.27;7.87;;;;;;;;;;4984593;28;20222;-69
2021/04/17 03:22:38;;;;;;;20.10;8.17;;;;;;;;;;4993502;28;20538;-69
2021/04/17 03:25:07;;;;;;;15.30;8.00;;;;;;;;;;4980722;28;20197;-69
2021/04/17 03:27:32;;;;;;;17.93;7.73;;;;;;;;;;4994157;28;20579;-69
2021/04/17 03:29:58;;;;;;;16.73;8.20;;;;;;;;;;4981814;28;20730;-68
2021/04/17 03:32:23;;;;;;;21.97;9.20;;;;;;;;;;4995503;28;20642;-68
2021/04/17 03:34:49;;;;;;;16.00;8.87;;;;;;;;;;4983123;28;20199;-68
2021/04/17 03:37:14;;;;;;;22.73;8.43;;;;;;;;;;4995687;28;20282;-68
2021/04/17 03:39:40;;;;;;;17.87;8.37;;;;;;;;;;4989574;28;20191;-68
2021/04/17 03:42:05;;;;;;;15.83;8.03;;;;;;;;;;4993892;28;20226;-68
2021/04/17 03:44:31;;;;;;;19.27;7.80;;;;;;;;;;4983233;28;20277;-68
2021/04/17 03:46:56;;;;;;;17.97;7.80;;;;;;;;;;4992929;28;20525;-68
2021/04/17 03:49:22;;;;;;;13.67;7.13;;;;;;;;;;4993730;28;20203;-68
2021/04/17 03:51:47;;;;;;;15.47;7.93;;;;;;;;;;4985095;28;20674;-68
2021/04/17 03:54:13;;;;;;;15.80;7.43;;;;;;;;;;4992007;28;20647;-68
2021/04/17 03:56:38;;;;;;;15.63;8.07;;;;;;;;;;4990097;28;20535;-68
2021/04/17 03:59:04;;;;;;;18.67;8.27;;;;;;;;;;4991504;28;20686;-69
2021/04/17 04:01:29;;;;;;;16.97;8.33;;;;;;;;;;4989080;28;20241;-69
2021/04/17 04:03:57;;;;;;;20.47;8.73;;;;;;;;;;4991832;28;20207;-69
2021/04/17 04:06:22;;;;;;;17.47;8.87;;;;;;;;;;4985184;28;20561;-68
2021/04/17 04:08:47;;;;;;;16.90;8.40;;;;;;;;;;4995020;28;20202;-69
2021/04/17 04:11:13;;;;;;;15.37;8.87;;;;;;;;;;4984858;28;20203;-69
2021/04/17 04:13:38;;;;;;;20.00;8.57;;;;;;;;;;4996825;28;20203;-68
2021/04/17 04:16:03;;;;;;;19.67;8.73;;;;;;;;;;4983119;28;20563;-68
2021/04/17 04:18:29;;;;;;;15.80;8.07;;;;;;;;;;5002159;28;20643;-68
2021/04/17 04:20:54;;;;;;;20.23;9.37;;;;;;;;;;4992171;28;20219;-69
2021/04/17 04:23:19;;;;;;;20.37;9.83;;;;;;;;;;4990080;28;20196;-69
2021/04/17 04:25:45;;;;;;;24.57;9.60;;;;;;;;;;4994440;28;20191;-69
2021/04/17 04:28:10;;;;;;;18.53;8.83;;;;;;;;;;4987524;28;20233;-69
2021/04/17 04:30:35;;;;;;;19.93;9.70;;;;;;;;;;4993106;28;20215;-69
2021/04/17 04:33:01;;;;;;;20.87;9.43;;;;;;;;;;4990191;28;20203;-69
2021/04/17 04:35:26;;;;;;;18.80;9.57;;;;;;;;;;4994656;28;20531;-69
2021/04/17 04:37:51;;;;;;;24.67;10.60;;;;;;;;;;4983535;28;20673;-69
2021/04/17 04:40:17;;;;;;;19.63;10.20;;;;;;;;;;4989904;28;20271;-69
2021/04/17 04:42:42;;;;;;;22.27;11.40;;;;;;;;;;4988711;28;20231;-69
2021/04/17 04:45:09;;;;;;;21.60;10.70;;;;;;;;;;4991368;28;20203;-69
2021/04/17 04:47:35;;;;;;;24.13;10.90;;;;;;;;;;4986416;28;20189;-69
2021/04/17 04:50:02;;;;;;;20.37;10.60;;;;;;;;;;4996178;28;20713;-69
2021/04/17 04:52:28;;;;;;;27.37;11.13;;;;;;;;;;5000529;28;20210;-69
2021/04/17 04:54:53;;;;;;;20.40;10.37;;;;;;;;;;4985989;28;20651;-68
2021/04/17 04:57:18;;;;;;;24.77;11.33;;;;;;;;;;4990849;28;20187;-68
2021/04/17 04:59:44;;;;;;;23.37;10.97;;;;;;;;;;4984675;28;20542;-68
2021/04/17 05:02:09;;;;;;;21.93;10.50;;;;;;;;;;4994321;28;20277;-68
2021/04/17 05:04:34;;;;;;;27.90;11.50;;;;;;;;;;4983875;28;20238;-68
2021/04/17 05:07:00;;;;;;;28.73;12.00;;;;;;;;;;4994262;28;20210;-69
2021/04/17 05:09:25;;;;;;;26.70;11.47;;;;;;;;;;4982695;28;21342;-68
2021/04/17 05:11:50;;;;;;;23.27;11.23;;;;;;;;;;4990610;28;20215;-69
2021/04/17 05:14:16;;;;;;;28.70;11.53;;;;;;;;;;4987727;28;20476;-69
2021/04/17 05:16:41;;;;;;;26.37;12.50;;;;;;;;;;4989250;28;20210;-69
2021/04/17 05:19:06;;;;;;;24.13;11.53;;;;;;;;;;4987423;28;20188;-69
2021/04/17 05:21:32;;;;;;;25.13;12.30;;;;;;;;;;4986472;28;20656;-68
2021/04/17 05:23:57;;;;;;;24.60;12.23;;;;;;;;;;4992432;28;20195;-69
2021/04/17 05:26:23;;;;;;;29.37;12.43;;;;;;;;;;4985946;28;20257;-69
2021/04/17 05:28:48;;;;;;;27.63;12.07;;;;;;;;;;4993452;28;20225;-69
2021/04/17 05:31:14;;;;;;;32.40;13.13;;;;;;;;;;4983209;28;20215;-69
2021/04/17 05:33:40;;;;;;;24.17;12.43;;;;;;;;;;4993437;28;20333;-69
2021/04/17 05:36:05;;;;;;;20.33;12.07;;;;;;;;;;4979855;28;20681;-69
2021/04/17 05:38:31;;;;;;;24.10;12.13;;;;;;;;;;4989572;28;20188;-69
2021/04/17 05:40:56;;;;;;;22.93;11.40;;;;;;;;;;4983252;28;20298;-68
2021/04/17 05:43:22;;;;;;;24.23;11.30;;;;;;;;;;4993254;28;20231;-69
2021/04/17 05:45:47;;;;;;;21.13;11.60;;;;;;;;;;4984447;28;20206;-69
2021/04/17 05:48:13;;;;;;;21.37;11.20;;;;;;;;;;4991988;28;20194;-69
2021/04/17 05:50:38;;;;;;;21.47;11.00;;;;;;;;;;4994596;28;20627;-69
2021/04/17 05:53:03;;;;;;;22.43;10.90;;;;;;;;;;4980193;28;20301;-69
2021/04/17 05:55:29;;;;;;;21.47;10.70;;;;;;;;;;4991082;28;20199;-69
2021/04/17 05:57:54;;;;;;;26.07;10.57;;;;;;;;;;4981050;28;20222;-69
2021/04/17 06:00:20;;;;;;;19.40;9.90;;;;;;;;;;4989643;28;20514;-68
2021/04/17 06:02:45;;;;;;;18.93;10.43;;;;;;;;;;4985103;28;20553;-69
2021/04/17 06:05:12;;;;;;;17.40;10.07;;;;;;;;;;4989148;28;20245;-69
2021/04/17 06:07:37;;;;;;;19.90;9.27;;;;;;;;;;4982932;28;20246;-69
2021/04/17 06:10:05;;;;;;;19.47;8.90;;;;;;;;;;4993233;28;20667;-69
2021/04/17 06:12:30;;;;;;;23.40;9.97;;;;;;;;;;4984036;28;20490;-69
2021/04/17 06:14:55;;;;;;;17.13;9.00;;;;;;;;;;4987079;28;20209;-69
2021/04/17 06:17:21;;;;;;;15.60;8.60;;;;;;;;;;4980749;28;20195;-69
2021/04/17 06:19:46;;;;;;;14.07;8.03;;;;;;;;;;4992284;28;20437;-68
2021/04/17 06:22:11;;;;;;;16.07;7.87;;;;;;;;;;4992776;28;20190;-69
2021/04/17 06:24:37;;;;;;;19.53;8.37;;;;;;;;;;4980046;28;20198;-69
2021/04/17 06:27:02;;;;;;;17.77;7.87;;;;;;;;;;4985610;28;20187;-69
2021/04/17 06:29:27;;;;;;;16.00;8.10;;;;;;;;;;4988185;28;20604;-69
2021/04/17 06:31:53;;;;;;;17.33;6.87;;;;;;;;;;4988800;28;20220;-69
2021/04/17 06:34:18;;;;;;;13.70;7.33;;;;;;;;;;4980730;28;20587;-69
2021/04/17 06:36:44;;;;;;;13.13;6.93;;;;;;;;;;4991232;28;20601;-68
2021/04/17 06:39:10;;;;;;;12.03;6.37;;;;;;;;;;4978469;28;20209;-69
2021/04/17 06:41:36;;;;;;;20.33;6.57;;;;;;;;;;4990102;28;20190;-69
2021/04/17 06:44:07;;;;;;;19.40;7.47;;;;;;;;;;4978990;28;21044;-69
2021/04/17 06:46:33;;;;;;;14.03;6.47;;;;;;;;;;4988708;28;20191;-70
2021/04/17 06:49:00;;;;;;;18.47;6.90;;;;;;;;;;4978929;28;20588;-69
2021/04/17 06:51:26;;;;;;;13.00;5.97;;;;;;;;;;4987336;28;20559;-69
2021/04/17 06:53:53;;;;;;;10.57;5.43;;;;;;;;;;4984914;28;20195;-69
2021/04/17 06:56:22;;;;;;;16.77;5.57;;;;;;;;;;4982496;28;20563;-70
2021/04/17 06:58:47;;;;;;;15.37;5.73;;;;;;;;;;4984473;28;20195;-69
2021/04/17 07:01:13;;;;;;;14.90;5.37;;;;;;;;;;4979016;28;20604;-69
2021/04/17 07:03:38;;;;;;;15.40;5.70;;;;;;;;;;4986845;28;20210;-69
2021/04/17 07:06:03;;;;;;;16.43;5.17;;;;;;;;;;4984462;28;20626;-69
2021/04/17 07:08:29;;;;;;;14.50;5.63;;;;;;;;;;4990644;28;20580;-69
2021/04/17 07:10:54;;;;;;;14.97;5.00;;;;;;;;;;4985260;28;20211;-69
2021/04/17 07:13:20;;;;;;;17.73;5.60;;;;;;;;;;4991874;28;20281;-69
2021/04/17 07:15:46;;;;;;;19.23;5.23;;;;;;;;;;4983972;28;20206;-70
2021/04/17 07:18:27;;;;;;;16.83;5.83;;;;;;;;;;4989550;28;20201;-69
2021/04/17 07:20:53;;;;;;;15.03;4.70;;;;;;;;;;4987219;28;20707;-69
2021/04/17 07:23:31;;;;;;;15.03;4.77;;;;;;;;;;4999224;28;20234;-70
2021/04/17 07:26:27;;;;;;;12.93;4.93;;;;;;;;;;4989638;28;20244;-70
2021/04/17 07:29:06;;;;;;;13.40;5.00;;;;;;;;;;4981928;28;20203;-70
2021/04/17 07:31:33;;;;;;;18.20;5.03;;;;;;;;;;4988728;28;20199;-70
2021/04/17 07:34:19;;;;;;;14.70;4.50;;;;;;;;;;4993803;28;20266;-70
2021/04/17 07:36:48;;;;;;;15.37;4.90;;;;;;;;;;4984526;28;20202;-70
2021/04/17 07:39:34;;;;;;;15.47;4.60;;;;;;;;;;4991074;28;20179;-70
2021/04/17 07:42:34;;;;;;;10.67;3.67;;;;;;;;;;4982824;28;20293;-70
2021/04/17 07:45:00;;;;;;;13.50;4.47;;;;;;;;;;4993639;28;20187;-70
2021/04/17 07:47:32;;;;;;;15.40;4.50;;;;;;;;;;5003330;28;20199;-70
2021/04/17 07:50:09;;;;;;;18.47;4.90;;;;;;;;;;4992060;28;20203;-69
2021/04/17 07:52:35;;;;;;;17.40;4.80;;;;;;;;;;4986410;28;20190;-70
2021/04/17 07:55:01;;;;;;;13.60;4.60;;;;;;;;;;4995152;28;20184;-69
2021/04/17 07:57:33;;;;;;;15.93;4.63;;;;;;;;;;4992543;28;20236;-69
2021/04/17 07:59:59;;;;;;;17.50;5.00;;;;;;;;;;4993094;28;20538;-70
2021/04/17 08:02:26;;;;;;;18.30;4.55;;;;;;;;;;4990692;28;20215;-70
2021/04/17 08:04:52;;;;;;;10.55;3.63;;;;;;;;;;4982982;28;20200;-69
2021/04/17 08:07:18;;;;;;;18.27;4.07;;;;;;;;;;4991063;28;20179;-70
2021/04/17 08:09:46;;;;;;;13.10;3.80;;;;;;;;;;4982855;28;20556;-69
2021/04/17 08:12:12;;;;;;;11.98;3.88;;;;;;;;;;4995672;28;20324;-70
2021/04/17 08:14:37;;;;;;;14.83;4.40;;;;;;;;;;4981742;28;20194;-70
2021/04/17 08:17:03;;;;;;;12.98;4.43;;;;;;;;;;4994051;28;20546;-70
2021/04/17 08:19:28;;;;;;;14.27;3.87;;;;;;;;;;4983822;28;20199;-70
2021/04/17 08:21:54;;;;;;;13.48;3.97;;;;;;;;;;4995362;28;20187;-69
2021/04/17 08:24:32;;;;;;;15.50;3.67;;;;;;;;;;4294218;28;10000586;-69
2021/04/17 08:27:00;;;;;;;15.27;4.00;;;;;;;;;;4991726;28;20225;-69
2021/04/17 08:29:44;;;;;;;10.87;3.33;;;;;;;;;;4985308;28;20199;-70
2021/04/17 08:32:34;;;;;;;12.65;3.80;;;;;;;;;;4989669;28;20253;-69
2021/04/17 08:35:12;;;;;;;13.30;4.18;;;;;;;;;;4982927;28;20575;-70
2021/04/17 08:37:55;;;;;;;16.17;3.80;;;;;;;;;;4987991;28;20725;-69
2021/04/17 08:40:36;;;;;;;14.75;4.13;;;;;;;;;;4984678;28;20199;-69
2021/04/17 08:43:03;;;;;;;15.15;4.10;;;;;;;;;;4989779;28;20230;-69
2021/04/17 08:45:29;;;;;;;8.63;3.58;;;;;;;;;;4982912;28;20213;-69
2021/04/17 08:47:57;;;;;;;12.65;3.85;;;;;;;;;;4987264;28;20197;-69
2021/04/17 08:50:31;;;;;;;12.63;3.10;;;;;;;;;;4978806;28;20708;-69
2021/04/17 08:53:10;;;;;;;14.57;4.25;;;;;;;;;;4991038;28;20224;-70
2021/04/17 08:55:35;;;;;;;8.32;3.17;;;;;;;;;;4978332;28;20220;-69
2021/04/17 08:58:15;;;;;;;13.40;3.78;;;;;;;;;;4987297;28;20219;-69
2021/04/17 09:01:01;;;;;;;11.05;2.65;;;;;;;;;;4982415;28;20214;-69
2021/04/17 09:03:37;;;;;;;9.30;2.95;;;;;;;;;;4988514;28;20675;-69
2021/04/17 09:06:04;;;;;;;11.63;3.55;;;;;;;;;;4978956;28;20199;-69
2021/04/17 09:08:30;;;;;;;9.48;3.08;;;;;;;;;;4998145;28;20187;-68
2021/04/17 09:10:56;;;;;;;12.35;3.40;;;;;;;;;;4985720;28;20207;-68
2021/04/17 09:13:24;;;;;;;11.75;3.08;;;;;;;;;;4987936;28;20576;-69
2021/04/17 09:15:53;;;;;;;9.55;3.05;;;;;;;;;;4994909;28;20246;-69
2021/04/17 09:18:38;;;;;;;9.75;2.72;;;;;;;;;;4983090;28;20244;-69
2021/04/17 09:21:06;;;;;;;8.07;2.47;;;;;;;;;;4988967;28;20824;-69
2021/04/17 09:23:46;;;;;;;8.60;2.70;;;;;;;;;;4975159;28;20191;-69
2021/04/17 09:26:30;;;;;;;5.80;2.33;;;;;;;;;;4994109;28;20213;-69
2021/04/17 09:29:16;;;;;;;8.82;2.50;;;;;;;;;;4989919;28;20289;-69
2021/04/17 09:31:41;;;;;;;9.18;2.38;;;;;;;;;;4985915;28;20272;-69
2021/04/17 09:34:11;;;;;;;8.43;2.78;;;;;;;;;;4982210;28;20199;-70
2021/04/17 09:36:36;;;;;;;10.23;3.30;;;;;;;;;;4995674;28;20269;-70
2021/04/17 09:39:23;;;;;;;9.57;2.78;;;;;;;;;;4983190;28;20236;-70
2021/04/17 09:41:50;;;;;;;11.15;3.05;;;;;;;;;;4990135;28;20263;-69
2021/04/17 09:44:16;;;;;;;9.50;3.38;;;;;;;;;;4982023;28;20705;-70
2021/04/17 09:46:42;;;;;;;7.63;2.88;;;;;;;;;;4989450;28;20188;-70
2021/04/17 09:49:07;;;;;;;12.10;2.67;;;;;;;;;;4983695;28;20578;-67
2021/04/17 09:51:32;;;;;;;10.95;3.17;;;;;;;;;;4997205;28;20235;-70
2021/04/17 09:54:04;;;;;;;11.13;3.00;;;;;;;;;;4985349;28;20235;-68
2021/04/17 09:56:35;;;;;;;7.25;3.03;;;;;;;;;;4993278;28;20218;-70
2021/04/17 09:59:08;;;;;;;9.75;3.00;;;;;;;;;;4987970;28;20293;-70
2021/04/17 10:01:34;;;;;;;7.97;2.97;;;;;;;;;;4993412;28;20273;-70
2021/04/17 10:04:00;;;;;;;8.13;3.47;;;;;;;;;;4994908;28;20330;-70
2021/04/17 10:06:28;;;;;;;11.75;3.17;;;;;;;;;;4986911;28;20563;-70
2021/04/17 10:08:55;;;;;;;8.32;3.00;;;;;;;;;;4988739;28;20253;-70
2021/04/17 10:11:27;;;;;;;5.95;3.42;;;;;;;;;;4983446;28;20211;-70
2021/04/17 10:13:53;;;;;;;10.05;3.22;;;;;;;;;;4990824;28;20205;-70
2021/04/17 10:16:28;;;;;;;10.35;4.05;;;;;;;;;;4979561;28;20191;-70
2021/04/17 10:18:54;;;;;;;9.00;3.30;;;;;;;;;;4987773;28;20186;-70
2021/04/17 10:21:24;;;;;;;5.20;2.72;;;;;;;;;;4984542;28;20500;-69
2021/04/17 10:24:14;;;;;;;10.55;3.20;;;;;;;;;;4993333;28;20264;-70
2021/04/17 10:27:10;;;;;;;8.70;3.28;;;;;;;;;;4980300;28;20194;-70
2021/04/17 10:29:49;;;;;;;6.70;2.88;;;;;;;;;;4989200;28;20203;-69
2021/04/17 10:32:26;;;;;;;6.90;3.28;;;;;;;;;;4981052;28;21823;-70
2021/04/17 10:35:05;;;;;;;10.27;3.13;;;;;;;;;;4990680;28;20222;-69
2021/04/17 10:37:39;;;;;;;3.97;2.55;;;;;;;;;;4981163;28;20187;-69
2021/04/17 10:40:09;;;;;;;8.55;3.28;;;;;;;;;;4987899;28;20321;-70
2021/04/17 10:42:46;;;;;;;9.20;2.92;;;;;;;;;;4985549;28;20243;-70
2021/04/17 10:45:15;;;;;;;6.90;2.97;;;;;;;;;;4995970;28;20199;-69
2021/04/17 10:47:41;;;;;;;8.50;2.53;;;;;;;;;;4990847;28;20213;-71
2021/04/17 10:50:23;;;;;;;5.07;2.60;;;;;;;;;;5005975;28;20289;-69
2021/04/17 10:52:58;;;;;;;5.53;2.90;;;;;;;;;;4983720;28;20191;-70
2021/04/17 10:55:42;;;;;;;6.57;3.30;;;;;;;;;;4991100;28;20182;-69
2021/04/17 10:58:25;;;;;;;8.07;3.28;;;;;;;;;;4991523;28;20665;-69
2021/04/17 11:00:52;;;;;;;11.23;3.28;;;;;;;;;;4994703;28;20191;-70
2021/04/17 11:03:18;;;;;;;7.10;3.08;;;;;;;;;;4986902;28;20211;-70
2021/04/17 11:05:45;;;;;;;11.85;3.20;;;;;;;;;;4998544;28;20260;-70
2021/04/17 11:08:10;;;;;;;7.53;3.50;;;;;;;;;;4982476;28;20237;-70
2021/04/17 11:10:38;;;;;;;8.90;3.00;;;;;;;;;;4992198;28;20210;-70
2021/04/17 11:13:05;;;;;;;8.77;2.95;;;;;;;;;;4990834;28;20266;-70
2021/04/17 11:15:33;;;;;;;7.28;3.00;;;;;;;;;;5000653;28;20198;-70
2021/04/17 11:18:13;;;;;;;9.98;3.10;;;;;;;;;;4986409;28;20195;-70
2021/04/17 11:20:52;;;;;;;6.07;2.45;;;;;;;;;;4994880;28;20179;-70
2021/04/17 11:23:36;;;;;;;7.28;2.40;;;;;;;;;;4986250;28;20203;-71
2021/04/17 11:26:11;;;;;;;6.47;2.72;;;;;;;;;;4992682;28;20206;-70
2021/04/17 11:28:39;;;;;;;6.80;2.58;;;;;;;;;;4984035;28;20637;-70
2021/04/17 11:31:05;;;;;;;6.75;2.58;;;;;;;;;;4990426;28;20441;-70
2021/04/17 11:33:30;;;;;;;4.95;2.20;;;;;;;;;;4984168;28;20302;-69
2021/04/17 11:35:56;;;;;;;8.63;2.75;;;;;;;;;;5003273;28;20195;-73
2021/04/17 11:38:22;;;;;;;9.63;2.90;;;;;;;;;;4992135;28;20195;-69
2021/04/17 11:40:47;;;;;;;5.97;2.47;;;;;;;;;;4983893;28;20199;-69
2021/04/17 11:43:13;;;;;;;12.68;2.75;;;;;;;;;;4994840;28;20230;-69
2021/04/17 11:45:38;;;;;;;7.05;2.13;;;;;;;;;;4988804;28;20180;-70
2021/04/17 11:48:05;;;;;;;5.90;2.25;;;;;;;;;;4995441;28;20620;-68
2021/04/17 11:50:31;;;;;;;4.50;2.30;;;;;;;;;;4985616;28;20328;-68
2021/04/17 11:52:57;;;;;;;6.72;2.10;;;;;;;;;;4993707;28;20219;-69
2021/04/17 11:55:23;;;;;;;5.78;2.63;;;;;;;;;;4982823;28;20214;-71
2021/04/17 11:57:49;;;;;;;10.68;3.00;;;;;;;;;;4995717;28;20575;-70
2021/04/17 12:00:14;;;;;;;7.63;2.63;;;;;;;;;;4986833;28;20191;-70
2021/04/17 12:02:40;;;;;;;4.15;2.58;;;;;;;;;;4993003;28;20218;-70
2021/04/17 12:05:06;;;;;;;6.05;3.42;;;;;;;;;;4998054;28;20269;-70
2021/04/17 12:07:31;;;;;;;5.18;2.60;;;;;;;;;;4984908;28;20198;-70
2021/04/17 12:09:56;;;;;;;6.22;2.67;;;;;;;;;;4989808;28;20180;-69
2021/04/17 12:12:24;;;;;;;8.02;3.22;;;;;;;;;;4982722;28;20663;-69
2021/04/17 12:14:49;;;;;;;9.65;2.35;;;;;;;;;;4994537;28;20604;-70
2021/04/17 12:17:14;;;;;;;11.25;2.63;;;;;;;;;;4987105;28;20282;-68
2021/04/17 12:19:40;;;;;;;5.22;2.38;;;;;;;;;;4996507;28;20183;-70
2021/04/17 12:22:05;;;;;;;5.28;2.55;;;;;;;;;;4982738;28;20191;-69
2021/04/17 12:24:31;;;;;;;5.80;2.65;;;;;;;;;;4997349;28;20262;-70
2021/04/17 12:26:56;;;;;;;5.60;2.88;;;;;;;;;;4993160;28;20277;-70
2021/04/17 12:29:21;;;;;;;5.88;2.63;;;;;;;;;;4996583;28;20194;-70
2021/04/17 12:31:47;;;;;;;5.60;2.47;;;;;;;;;;4987855;28;20265;-70
2021/04/17 12:34:12;;;;;;;5.80;2.28;;;;;;;;;;4992618;28;20191;-70
2021/04/17 12:36:38;;;;;;;7.30;2.17;;;;;;;;;;5001826;28;20692;-69
2021/04/17 12:39:04;;;;;;;6.10;2.15;;;;;;;;;;4982832;28;20191;-70
2021/04/17 12:41:29;;;;;;;4.65;2.10;;;;;;;;;;4998137;28;20263;-70
2021/04/17 12:43:54;;;;;;;6.32;2.78;;;;;;;;;;4981328;28;20325;-70
2021/04/17 12:46:20;;;;;;;10.93;2.67;;;;;;;;;;4994525;28;20206;-70
2021/04/17 12:48:45;;;;;;;6.70;2.42;;;;;;;;;;4983435;28;20191;-70
2021/04/17 12:51:10;;;;;;;4.63;2.00;;;;;;;;;;4988247;28;20655;-70
2021/04/17 12:53:36;;;;;;;6.15;2.22;;;;;;;;;;4981259;28;20746;-70
2021/04/17 12:56:01;;;;;;;5.88;1.92;;;;;;;;;;4992496;28;20191;-70
2021/04/17 12:58:27;;;;;;;8.63;1.80;;;;;;;;;;4983004;28;20678;-70
2021/04/17 13:00:52;;;;;;;6.65;2.03;;;;;;;;;;5001101;28;20752;-70
2021/04/17 13:03:18;;;;;;;8.27;2.08;;;;;;;;;;4987847;28;20206;-70
2021/04/17 13:05:44;;;;;;;5.78;1.85;;;;;;;;;;4992614;28;20191;-70
2021/04/17 13:08:09;;;;;;;4.90;1.75;;;;;;;;;;4992208;28;20218;-69
2021/04/17 13:10:34;;;;;;;5.18;1.98;;;;;;;;;;4981995;28;20699;-69
2021/04/17 13:13:00;;;;;;;4.97;2.10;;;;;;;;;;4990008;28;20195;-69
2021/04/17 13:15:25;;;;;;;7.18;2.20;;;;;;;;;;4982370;28;20194;-69
2021/04/17 13:17:52;;;;;;;5.30;2.00;;;;;;;;;;4992528;28;20270;-69
2021/04/17 13:20:18;;;;;;;4.43;1.92;;;;;;;;;;4985301;28;20191;-69
2021/04/17 13:22:43;;;;;;;4.80;2.05;;;;;;;;;;4990942;28;20723;-69
2021/04/17 13:25:09;;;;;;;8.35;2.30;;;;;;;;;;4981359;28;20185;-69
2021/04/17 13:27:35;;;;;;;5.15;2.22;;;;;;;;;;4990439;28;20614;-70
2021/04/17 13:30:00;;;;;;;4.97;2.38;;;;;;;;;;4982131;28;20218;-70
2021/04/17 13:32:25;;;;;;;5.05;2.42;;;;;;;;;;4993339;28;20198;-69
2021/04/17 13:34:53;;;;;;;4.65;2.08;;;;;;;;;;4983356;28;20659;-69
2021/04/17 13:37:19;;;;;;;6.70;2.30;;;;;;;;;;4993419;28;20214;-69
2021/04/17 13:39:44;;;;;;;6.93;2.55;;;;;;;;;;4993750;28;20224;-70
2021/04/17 13:42:10;;;;;;;6.40;2.42;;;;;;;;;;4982254;28;20187;-70
2021/04/17 13:44:36;;;;;;;4.95;2.00;;;;;;;;;;4990706;28;20250;-70
2021/04/17 13:47:01;;;;;;;8.90;2.33;;;;;;;;;;4990727;28;20234;-70
2021/04/17 13:49:27;;;;;;;8.48;2.95;;;;;;;;;;4991225;28;20597;-70
2021/04/17 13:51:52;;;;;;;5.10;2.22;;;;;;;;;;4981449;28;20207;-69
2021/04/17 13:54:17;;;;;;;6.03;2.15;;;;;;;;;;4990844;28;20190;-69
2021/04/17 13:56:43;;;;;;;6.75;2.65;;;;;;;;;;4983630;28;20217;-69
2021/04/17 13:59:08;;;;;;;6.13;2.25;;;;;;;;;;4996339;28;20178;-70
2021/04/17 14:01:33;;;;;;;4.30;2.08;;;;;;;;;;4981220;28;20285;-70
2021/04/17 14:03:59;;;;;;;5.57;2.25;;;;;;;;;;4995664;28;20210;-70
2021/04/17 14:06:24;;;;;;;4.93;2.42;;;;;;;;;;4980166;28;20603;-70
2021/04/17 14:08:50;;;;;;;4.53;1.98;;;;;;;;;;4993263;28;20191;-70
2021/04/17 14:11:15;;;;;;;7.90;2.50;;;;;;;;;;4990019;28;20262;-69
2021/04/17 14:13:40;;;;;;;5.03;2.30;;;;;;;;;;4980342;28;20190;-69
2021/04/17 14:16:06;;;;;;;6.07;1.85;;;;;;;;;;4639984;28;10000635;-69
2021/04/17 14:18:31;;;;;;;5.57;2.17;;;;;;;;;;4983151;28;20270;-70
2021/04/17 14:20:58;;;;;;;4.38;2.03;;;;;;;;;;4986720;28;21780;-69
2021/04/17 14:23:23;;;;;;;8.50;2.13;;;;;;;;;;4978147;28;20355;-70
2021/04/17 14:25:49;;;;;;;7.55;2.00;;;;;;;;;;4992052;28;20296;-70
2021/04/17 14:28:14;;;;;;;7.60;2.25;;;;;;;;;;4984475;28;20657;-69
2021/04/17 14:30:40;;;;;;;6.55;1.85;;;;;;;;;;4986236;28;20212;-70
2021/04/17 14:33:06;;;;;;;5.78;2.25;;;;;;;;;;4976083;28;20210;-70
2021/04/17 14:35:32;;;;;;;5.15;1.83;;;;;;;;;;4986138;28;20277;-69
2021/04/17 14:37:57;;;;;;;5.68;1.95;;;;;;;;;;4984818;28;20294;-70
2021/04/17 14:40:23;;;;;;;8.95;2.28;;;;;;;;;;5004453;28;20179;-69